createdAt,value
2023-05-24T00:00:53.436Z,1.42
2023-05-24T00:02:55.555Z,1.52
2023-05-24T00:05:01.293Z,1.42
2023-05-24T00:07:03.679Z,1.75
2023-05-24T00:09:05.722Z,1.60
2023-05-24T00:11:07.734Z,1.60
2023-05-24T00:13:09.647Z,2.28
2023-05-24T00:15:11.756Z,1.88
2023-05-24T00:17:14.232Z,1.80
2023-05-24T00:19:18.849Z,1.70
2023-05-24T00:21:21.128Z,1.98
2023-05-24T00:23:23.011Z,1.67
2023-05-24T00:25:25.079Z,1.83
2023-05-24T00:27:26.958Z,1.52
2023-05-24T00:29:30.796Z,1.13
2023-05-24T00:31:34.333Z,1.50
2023-05-24T00:33:36.219Z,1.70
2023-05-24T00:35:38.538Z,1.70
2023-05-24T00:37:45.211Z,1.40
2023-05-24T00:39:47.890Z,1.17
2023-05-24T00:41:49.912Z,1.05
2023-05-24T00:43:51.832Z,1.63
2023-05-24T00:46:14.700Z,1.60
2023-05-24T00:48:16.659Z,1.08
2023-05-24T00:50:20.815Z,1.88
2023-05-24T00:52:23.236Z,1.10
2023-05-24T00:54:27.086Z,1.20
2023-05-24T00:56:29.419Z,1.45
2023-05-24T00:58:32.811Z,1.30
2023-05-24T01:00:34.733Z,1.48
2023-05-24T01:02:38.060Z,1.55
2023-05-24T01:04:40.001Z,1.08
2023-05-24T01:07:00.828Z,1.27
2023-05-24T01:11:26.660Z,1.02
2023-05-24T01:13:42.597Z,1.08
2023-05-24T01:16:00.299Z,1.52
2023-05-24T01:18:08.139Z,1.88
2023-05-24T01:20:13.805Z,1.60
2023-05-24T01:22:25.651Z,1.13
2023-05-24T01:24:42.520Z,1.40
2023-05-24T01:27:03.974Z,1.17
2023-05-24T01:29:06.773Z,1.10
2023-05-24T01:31:09.693Z,0.95
2023-05-24T01:33:12.271Z,1.27
2023-05-24T01:35:14.204Z,1.02
2023-05-24T01:37:16.697Z,1.65
2023-05-24T01:39:19.678Z,1.15
2023-05-24T01:41:26.866Z,1.00
2023-05-24T01:43:35.071Z,1.42
2023-05-24T01:45:56.900Z,1.35
2023-05-24T01:48:18.930Z,1.08
2023-05-24T01:50:29.063Z,2.08
2023-05-24T01:52:33.970Z,1.40
2023-05-24T01:54:39.047Z,1.33
2023-05-24T01:56:43.689Z,1.55
2023-05-24T01:58:47.735Z,1.50
2023-05-24T02:00:51.034Z,1.30
2023-05-24T02:02:53.363Z,1.17
2023-05-24T02:04:56.572Z,1.52
2023-05-24T02:06:58.458Z,1.50
2023-05-24T02:09:00.287Z,1.40
2023-05-24T02:11:02.808Z,1.60
2023-05-24T02:13:04.800Z,1.70
2023-05-24T02:15:07.680Z,1.67
2023-05-24T02:17:09.595Z,1.58
2023-05-24T02:19:11.474Z,2.10
2023-05-24T02:21:13.395Z,1.38
2023-05-24T02:23:15.193Z,1.50
2023-05-24T02:25:17.045Z,1.73
2023-05-24T02:27:19.034Z,1.92
2023-05-24T02:29:21.808Z,1.70
2023-05-24T02:31:23.685Z,1.52
2023-05-24T02:33:25.829Z,1.67
2023-05-24T02:35:27.675Z,2.33
2023-05-24T02:37:29.601Z,1.50
2023-05-24T02:39:31.695Z,2.08
2023-05-24T02:41:33.589Z,1.73
2023-05-24T02:43:35.496Z,1.73
2023-05-24T02:45:37.812Z,2.35
2023-05-24T02:47:39.661Z,2.40
2023-05-24T02:49:41.854Z,2.00
2023-05-24T02:51:43.661Z,1.95
2023-05-24T02:53:45.574Z,1.80
2023-05-24T02:55:47.471Z,1.50
2023-05-24T02:57:49.318Z,1.90
2023-05-24T02:59:51.227Z,2.00
2023-05-24T03:01:53.174Z,2.17
2023-05-24T03:03:55.093Z,2.33
2023-05-24T03:05:56.964Z,2.55
2023-05-24T03:07:58.805Z,2.60
2023-05-24T03:10:00.638Z,3.13
2023-05-24T03:12:02.448Z,2.10
2023-05-24T03:14:04.485Z,2.67
2023-05-24T03:16:06.914Z,2.28
2023-05-24T03:18:08.889Z,2.17
2023-05-24T03:20:11.819Z,1.80
2023-05-24T03:22:13.676Z,3.03
2023-05-24T03:24:15.512Z,2.20
2023-05-24T03:26:18.978Z,2.38
2023-05-24T03:28:22.462Z,2.40
2023-05-24T03:30:24.356Z,2.47
2023-05-24T03:32:26.198Z,2.95
2023-05-24T03:34:28.035Z,2.72
2023-05-24T03:36:29.919Z,2.63
2023-05-24T03:38:33.820Z,2.72
2023-05-24T03:40:36.824Z,2.47
2023-05-24T03:42:38.938Z,2.60
2023-05-24T03:44:41.147Z,2.85
2023-05-24T03:46:43.130Z,2.20
2023-05-24T03:48:45.096Z,2.40
2023-05-24T03:50:48.047Z,2.88
2023-05-24T03:52:50.731Z,2.50
2023-05-24T03:54:52.584Z,2.40
2023-05-24T03:56:54.468Z,2.42
2023-05-24T03:59:00.678Z,3.00
2023-05-24T04:01:02.684Z,2.50
2023-05-24T04:03:06.926Z,2.85
2023-05-24T04:05:10.429Z,2.88
2023-05-24T04:07:13.938Z,2.60
2023-05-24T04:09:15.860Z,2.35
2023-05-24T04:11:17.763Z,2.60
2023-05-24T04:13:19.648Z,2.38
2023-05-24T04:15:21.552Z,3.03
2023-05-24T04:17:24.976Z,3.08
2023-05-24T04:19:27.110Z,2.60
2023-05-24T04:21:29.289Z,3.35
2023-05-24T04:23:31.229Z,2.13
2023-05-24T04:25:33.724Z,2.42
2023-05-24T04:27:36.576Z,2.88
2023-05-24T04:29:42.303Z,3.60
2023-05-24T04:31:45.200Z,3.08
2023-05-24T04:33:48.036Z,3.15
2023-05-24T04:35:49.930Z,3.10
2023-05-24T04:37:52.606Z,2.80
2023-05-24T04:39:54.472Z,2.67
2023-05-24T04:41:58.135Z,2.97
2023-05-24T04:44:00.059Z,2.55
2023-05-24T04:46:02.109Z,3.45
2023-05-24T04:48:05.291Z,2.63
2023-05-24T04:50:08.252Z,3.47
2023-05-24T04:52:10.144Z,2.92
2023-05-24T04:54:12.053Z,3.63
2023-05-24T04:56:16.183Z,3.20
2023-05-24T04:58:18.180Z,3.22
2023-05-24T05:00:21.630Z,3.25
2023-05-24T05:02:23.528Z,3.05
2023-05-24T05:04:25.383Z,3.20
2023-05-24T05:06:27.245Z,3.53
2023-05-24T05:08:29.057Z,2.88
2023-05-24T05:10:31.130Z,3.65
2023-05-24T05:12:32.960Z,3.70
2023-05-24T05:14:34.807Z,3.17
2023-05-24T05:16:36.986Z,3.13
2023-05-24T05:18:39.161Z,3.30
2023-05-24T05:20:41.305Z,3.40
2023-05-24T05:22:47.884Z,3.72
2023-05-24T05:24:49.799Z,2.80
2023-05-24T05:26:51.740Z,3.13
2023-05-24T05:28:55.037Z,3.50
2023-05-24T05:30:57.084Z,3.72
2023-05-24T05:32:59.283Z,4.35
2023-05-24T05:35:01.385Z,3.90
2023-05-24T05:37:03.276Z,3.38
2023-05-24T05:39:05.183Z,2.83
2023-05-24T05:41:07.557Z,3.75
2023-05-24T05:43:09.557Z,2.72
2023-05-24T05:45:12.131Z,3.95
2023-05-24T05:47:13.989Z,3.53
2023-05-24T05:49:18.569Z,3.60
2023-05-24T05:51:20.527Z,3.88
2023-05-24T05:53:22.418Z,3.45
2023-05-24T05:55:25.217Z,3.80
2023-05-24T05:57:27.347Z,3.28
2023-05-24T05:59:29.251Z,3.63
2023-05-24T06:01:31.170Z,3.45
2023-05-24T06:03:33.146Z,3.05
2023-05-24T06:05:35.282Z,3.58
2023-05-24T06:07:38.840Z,3.60
2023-05-24T06:09:41.166Z,3.58
2023-05-24T06:11:45.168Z,3.63
2023-05-24T06:13:47.053Z,3.25
2023-05-24T06:15:50.257Z,3.70
2023-05-24T06:17:52.917Z,3.67
2023-05-24T06:19:56.087Z,3.22
2023-05-24T06:21:58.065Z,3.70
2023-05-24T06:24:02.673Z,4.07
2023-05-24T06:26:04.936Z,2.90
2023-05-24T06:28:06.923Z,3.30
2023-05-24T06:30:09.585Z,3.17
2023-05-24T06:32:11.889Z,3.00
2023-05-24T06:34:17.191Z,3.35
2023-05-24T06:36:19.103Z,3.83
2023-05-24T06:38:21.092Z,3.65
2023-05-24T06:40:23.135Z,3.38
2023-05-24T06:42:25.047Z,3.20
2023-05-24T06:44:34.037Z,2.67
2023-05-24T06:46:36.578Z,3.55
2023-05-24T06:48:38.606Z,4.00
2023-05-24T06:50:42.561Z,3.47
2023-05-24T06:52:45.041Z,3.88
2023-05-24T06:54:46.949Z,3.50
2023-05-24T06:56:48.924Z,3.53
2023-05-24T06:58:51.184Z,3.17
2023-05-24T07:00:53.430Z,3.22
2023-05-24T07:02:56.678Z,3.05
2023-05-24T07:04:59.132Z,2.67
2023-05-24T07:07:01.988Z,3.70
2023-05-24T07:09:04.732Z,3.63
2023-05-24T07:11:08.050Z,3.00
2023-05-24T07:13:10.217Z,3.17
2023-05-24T07:15:12.166Z,3.20
2023-05-24T07:17:14.262Z,2.60
2023-05-24T07:19:16.369Z,2.53
2023-05-24T07:21:18.444Z,2.72
2023-05-24T07:23:20.470Z,2.83
2023-05-24T07:25:23.234Z,2.75
2023-05-24T07:27:25.449Z,2.78
2023-05-24T07:29:27.788Z,2.97
2023-05-24T07:31:32.616Z,3.08
2023-05-24T07:33:38.041Z,3.42
2023-05-24T07:35:40.409Z,3.35
2023-05-24T07:37:42.455Z,2.60
2023-05-24T07:39:45.039Z,2.60
2023-05-24T07:41:47.111Z,2.70
2023-05-24T07:43:49.516Z,3.00
2023-05-24T07:45:51.742Z,3.03
2023-05-24T07:47:56.578Z,2.70
2023-05-24T07:49:58.876Z,3.15
2023-05-24T07:52:00.884Z,2.95
2023-05-24T07:54:02.850Z,3.63
2023-05-24T07:56:05.688Z,3.10
2023-05-24T07:58:08.256Z,2.70
2023-05-24T08:00:14.834Z,3.47
2023-05-24T08:02:17.338Z,2.97
2023-05-24T08:04:19.527Z,2.47
2023-05-24T08:06:22.319Z,2.80
2023-05-24T08:08:26.935Z,3.00
2023-05-24T08:10:29.488Z,2.85
2023-05-24T08:12:32.039Z,2.78
2023-05-24T08:14:34.911Z,3.08
2023-05-24T08:16:37.224Z,3.33
2023-05-24T08:18:39.609Z,2.90
2023-05-24T08:20:42.415Z,2.88
2023-05-24T08:22:44.811Z,2.88
2023-05-24T08:24:47.788Z,2.97
2023-05-24T08:26:52.407Z,3.05
2023-05-24T08:28:55.382Z,2.53
2023-05-24T08:30:59.055Z,2.83
2023-05-24T08:33:01.652Z,2.65
2023-05-24T08:35:19.543Z,2.90
2023-05-24T08:37:23.956Z,3.38
2023-05-24T08:39:26.506Z,3.53
2023-05-24T08:41:29.126Z,2.55
2023-05-24T08:43:32.965Z,3.50
2023-05-24T08:45:37.808Z,3.42
2023-05-24T08:47:41.430Z,2.70
2023-05-24T08:49:44.057Z,3.38
2023-05-24T08:51:46.813Z,2.95
2023-05-24T08:53:51.216Z,2.88
2023-05-24T08:55:56.141Z,3.00
2023-05-24T08:57:58.939Z,2.80
2023-05-24T09:00:01.485Z,2.88
2023-05-24T09:02:05.307Z,3.25
2023-05-24T09:04:09.345Z,3.20
2023-05-24T09:06:13.473Z,3.20
2023-05-24T09:08:18.734Z,2.88
2023-05-24T09:10:22.766Z,2.75
2023-05-24T09:12:36.722Z,2.88
2023-05-24T09:14:46.700Z,2.92
2023-05-24T09:16:49.859Z,3.63
2023-05-24T09:18:52.102Z,2.90
2023-05-24T09:20:54.731Z,2.63
2023-05-24T09:22:58.249Z,2.08
2023-05-24T09:25:02.400Z,2.55
2023-05-24T09:27:07.617Z,2.70
2023-05-24T09:29:09.745Z,2.70
2023-05-24T09:31:12.650Z,3.38
2023-05-24T09:33:15.218Z,2.30
2023-05-24T09:35:17.444Z,2.60
2023-05-24T09:37:25.705Z,2.72
2023-05-24T09:39:29.833Z,2.42
2023-05-24T09:41:33.132Z,3.30
2023-05-24T09:43:47.447Z,2.55
2023-05-24T09:45:49.641Z,2.75
2023-05-24T09:47:53.410Z,2.13
2023-05-24T09:49:55.606Z,2.28
2023-05-24T09:51:58.554Z,2.40
2023-05-24T09:54:03.316Z,1.95
2023-05-24T09:56:08.979Z,2.17
2023-05-24T09:58:13.386Z,2.47
2023-05-24T10:00:22.752Z,2.63
2023-05-24T10:02:27.573Z,2.47
2023-05-24T10:04:34.951Z,2.70
2023-05-24T10:06:38.778Z,2.60
2023-05-24T10:08:41.125Z,2.45
2023-05-24T10:10:44.594Z,2.13
2023-05-24T10:12:48.010Z,2.35
2023-05-24T10:14:52.587Z,2.72
2023-05-24T10:16:54.995Z,2.53
2023-05-24T10:18:57.490Z,2.50
2023-05-24T10:21:02.065Z,2.30
2023-05-24T10:23:08.269Z,2.38
2023-05-24T10:25:18.990Z,2.47
2023-05-24T10:27:25.943Z,1.80
2023-05-24T10:29:53.291Z,2.45
2023-05-24T10:31:56.415Z,2.63
2023-05-24T10:34:07.026Z,1.83
2023-05-24T10:36:14.677Z,2.10
2023-05-24T10:38:17.596Z,2.80
2023-05-24T10:40:25.613Z,3.25
2023-05-24T10:42:31.593Z,2.53
2023-05-24T10:44:34.198Z,2.75
2023-05-24T10:46:36.816Z,2.38
2023-05-24T10:48:41.008Z,2.50
2023-05-24T10:50:44.965Z,3.10
2023-05-24T10:52:50.167Z,2.58
2023-05-24T10:55:05.393Z,2.95
2023-05-24T10:57:08.503Z,2.30
2023-05-24T10:59:24.091Z,1.90
2023-05-24T11:01:27.882Z,2.40
2023-05-24T11:03:34.134Z,2.53
2023-05-24T11:05:50.173Z,2.15
2023-05-24T11:07:59.968Z,2.10
2023-05-24T11:10:09.928Z,1.90
2023-05-24T11:12:17.059Z,2.50
2023-05-24T11:14:21.012Z,2.17
2023-05-24T11:16:40.825Z,2.53
2023-05-24T11:18:56.295Z,2.15
2023-05-24T11:21:03.894Z,2.50
2023-05-24T11:23:07.844Z,2.53
2023-05-24T11:25:10.982Z,2.42
2023-05-24T11:27:14.762Z,2.58
2023-05-24T11:29:19.511Z,2.63
2023-05-24T11:31:28.227Z,2.47
2023-05-24T11:33:30.779Z,2.83
2023-05-24T11:35:33.070Z,3.35
2023-05-24T11:37:45.643Z,2.65
2023-05-24T11:39:54.644Z,2.70
2023-05-24T11:41:57.127Z,3.22
2023-05-24T11:43:59.287Z,2.72
2023-05-24T11:46:01.685Z,2.63
2023-05-24T11:48:07.268Z,2.85
2023-05-24T11:50:09.476Z,2.50
2023-05-24T11:52:11.360Z,2.35
2023-05-24T11:54:21.798Z,2.67
2023-05-24T11:56:27.436Z,2.63
2023-05-24T11:58:47.072Z,2.38
2023-05-24T12:00:50.260Z,2.38
2023-05-24T12:02:56.360Z,2.17
2023-05-24T12:05:19.644Z,2.92
2023-05-24T12:07:24.292Z,2.72
2023-05-24T12:09:28.735Z,2.53
2023-05-24T12:11:33.101Z,3.13
2023-05-24T12:13:37.013Z,3.00
2023-05-24T12:16:15.468Z,2.47
2023-05-24T12:18:21.997Z,2.90
2023-05-24T12:20:25.707Z,2.90
2023-05-24T12:22:32.575Z,2.65
2023-05-24T12:24:38.402Z,2.67
2023-05-24T12:26:43.457Z,2.45
2023-05-24T12:28:51.604Z,2.22
2023-05-24T12:31:17.669Z,2.15
2023-05-24T12:33:40.888Z,2.42
2023-05-24T12:35:43.509Z,2.67
2023-05-24T12:37:46.402Z,2.65
2023-05-24T12:40:01.470Z,2.08
2023-05-24T12:42:23.063Z,2.42
2023-05-24T12:44:37.829Z,2.60
2023-05-24T12:47:04.205Z,2.25
2023-05-24T12:56:06.489Z,2.30
2023-05-24T12:58:17.446Z,2.33
2023-05-24T13:00:39.612Z,2.60
2023-05-24T13:02:46.501Z,2.65
2023-05-24T13:05:07.723Z,3.10
2023-05-24T13:07:10.272Z,2.60
2023-05-24T13:09:14.270Z,2.42
2023-05-24T13:11:25.367Z,2.72
2023-05-24T13:13:29.573Z,2.80
2023-05-24T13:15:43.578Z,2.70
2023-05-24T13:17:47.418Z,2.75
2023-05-24T13:19:49.946Z,2.38
2023-05-24T13:21:53.386Z,2.75
2023-05-24T13:24:10.337Z,2.30
2023-05-24T13:34:42.504Z,2.38
2023-05-24T13:37:06.770Z,2.33
2023-05-24T13:39:38.973Z,2.10
2023-05-24T13:44:28.848Z,2.45
2023-05-24T13:49:03.744Z,2.90
2023-05-24T13:51:05.901Z,3.08
2023-05-24T13:53:08.243Z,2.42
2023-05-24T13:55:10.725Z,2.63
2023-05-24T13:57:12.867Z,2.55
2023-05-24T13:59:15.844Z,2.50
2023-05-24T14:01:17.910Z,2.42
2023-05-24T14:03:20.077Z,2.42
2023-05-24T14:07:28.428Z,3.40
2023-05-24T14:09:30.392Z,2.70
2023-05-24T14:11:32.935Z,2.75
2023-05-24T14:15:40.268Z,2.92
2023-05-24T14:17:42.438Z,2.80
2023-05-24T14:19:44.452Z,2.38
2023-05-24T14:21:46.455Z,3.13
2023-05-24T14:23:48.744Z,2.67
2023-05-24T14:25:52.526Z,2.67
2023-05-24T14:27:58.057Z,2.88
2023-05-24T14:30:00.321Z,2.90
2023-05-24T14:32:02.529Z,2.85
2023-05-24T14:34:04.788Z,2.50
2023-05-24T14:36:07.314Z,2.65
2023-05-24T14:38:11.588Z,2.47
2023-05-24T14:40:14.137Z,2.78
2023-05-24T14:42:16.617Z,3.22
2023-05-24T14:44:19.257Z,3.45
2023-05-24T14:46:21.352Z,2.83
2023-05-24T14:48:23.667Z,2.90
2023-05-24T14:50:25.508Z,3.35
2023-05-24T14:52:32.846Z,2.70
2023-05-24T14:54:34.722Z,2.88
2023-05-24T14:56:36.740Z,2.70
2023-05-24T14:58:38.740Z,2.63
2023-05-24T15:00:42.631Z,2.65
2023-05-24T15:02:45.102Z,3.35
2023-05-24T15:04:47.220Z,2.88
2023-05-24T15:06:49.286Z,3.10
2023-05-24T15:08:52.312Z,3.33
2023-05-24T15:10:55.689Z,2.92
2023-05-24T15:12:58.872Z,2.75
2023-05-24T15:15:02.126Z,2.28
2023-05-24T15:17:04.616Z,2.45
2023-05-24T15:19:08.432Z,2.83
2023-05-24T15:21:10.436Z,2.72
2023-05-24T15:23:12.567Z,2.75
2023-05-24T15:25:15.025Z,2.55
2023-05-24T15:27:17.741Z,2.78
2023-05-24T15:29:20.615Z,2.83
2023-05-24T15:31:22.847Z,2.58
2023-05-24T15:33:26.776Z,2.80
2023-05-24T15:35:28.825Z,2.67
2023-05-24T15:37:30.732Z,2.35
2023-05-24T15:39:33.788Z,2.60
2023-05-24T15:41:37.869Z,2.80
2023-05-24T15:43:40.105Z,2.58
2023-05-24T15:45:44.038Z,2.85
2023-05-24T15:47:46.236Z,2.47
2023-05-24T15:49:48.118Z,2.28
2023-05-24T15:52:03.591Z,3.78
2023-05-24T15:54:06.964Z,2.50
2023-05-24T15:56:10.144Z,2.78
2023-05-24T15:58:13.703Z,2.58
2023-05-24T16:00:16.280Z,2.53
2023-05-24T16:02:21.137Z,2.53
2023-05-24T16:04:23.477Z,2.78
2023-05-24T16:06:25.634Z,2.38
2023-05-24T16:08:28.651Z,2.20
2023-05-24T16:10:31.138Z,3.08
2023-05-24T16:12:33.208Z,2.28
2023-05-24T16:14:37.666Z,2.90
2023-05-24T16:16:39.772Z,2.38
2023-05-24T16:18:42.286Z,2.65
2023-05-24T16:20:46.379Z,2.78
2023-05-24T16:22:49.948Z,2.42
2023-05-24T16:24:53.705Z,3.15
2023-05-24T16:26:57.528Z,2.45
2023-05-24T16:29:00.008Z,2.97
2023-05-24T16:31:04.330Z,2.65
2023-05-24T16:33:07.098Z,3.03
2023-05-24T16:35:10.140Z,2.70
2023-05-24T16:37:13.369Z,2.78
2023-05-24T16:39:15.517Z,3.30
2023-05-24T16:41:17.658Z,2.90
2023-05-24T16:43:20.646Z,2.20
2023-05-24T16:45:23.317Z,2.45
2023-05-24T16:47:28.782Z,2.85
2023-05-24T16:49:32.148Z,3.45
2023-05-24T16:51:34.283Z,2.35
2023-05-24T16:53:36.408Z,3.47
2023-05-24T16:55:39.081Z,2.92
2023-05-24T16:57:42.092Z,2.58
2023-05-24T16:59:45.598Z,2.92
2023-05-24T17:01:51.121Z,2.78
2023-05-24T17:03:54.061Z,2.80
2023-05-24T17:06:01.920Z,3.13
2023-05-24T17:08:06.962Z,2.85
2023-05-24T17:10:09.715Z,2.65
2023-05-24T17:12:11.999Z,3.28
2023-05-24T17:14:14.823Z,2.53
2023-05-24T17:16:19.774Z,2.80
2023-05-24T17:18:30.785Z,2.75
2023-05-24T17:20:33.361Z,2.75
2023-05-24T17:22:35.577Z,2.97
2023-05-24T17:24:37.724Z,2.90
2023-05-24T17:26:41.684Z,2.97
2023-05-24T17:28:45.060Z,2.67
2023-05-24T17:30:47.831Z,3.13
2023-05-24T17:32:52.561Z,2.78
2023-05-24T17:34:54.894Z,2.72
2023-05-24T17:36:57.183Z,2.65
2023-05-24T17:38:59.666Z,2.53
2023-05-24T17:41:01.818Z,3.05
2023-05-24T17:43:04.642Z,2.85
2023-05-24T17:45:08.446Z,2.88
2023-05-24T17:47:11.167Z,2.97
2023-05-24T17:49:16.290Z,2.90
2023-05-24T17:51:20.382Z,2.70
2023-05-24T17:53:31.375Z,2.42
2023-05-24T17:55:35.920Z,2.40
2023-05-24T17:57:38.721Z,2.47
2023-05-24T17:59:41.196Z,2.90
2023-05-24T18:01:44.134Z,3.10
2023-05-24T18:03:46.705Z,2.72
2023-05-24T18:05:48.874Z,3.42
2023-05-24T18:07:50.891Z,3.03
2023-05-24T18:09:52.887Z,2.70
2023-05-24T18:11:55.055Z,2.90
2023-05-24T18:13:57.617Z,3.92
2023-05-24T18:16:00.064Z,2.70
2023-05-24T18:18:02.752Z,3.20
2023-05-24T18:20:05.981Z,3.88
2023-05-24T18:22:08.289Z,3.22
2023-05-24T18:24:10.677Z,2.72
2023-05-24T18:26:12.833Z,3.10
2023-05-24T18:28:15.250Z,3.58
2023-05-24T18:30:17.580Z,2.90
2023-05-24T18:32:19.680Z,3.85
2023-05-24T18:34:21.727Z,3.00
2023-05-24T18:36:23.730Z,3.20
2023-05-24T18:38:25.691Z,3.22
2023-05-24T18:40:27.841Z,3.47
2023-05-24T18:42:29.832Z,2.78
2023-05-24T18:44:31.873Z,3.13
2023-05-24T18:46:33.926Z,2.80
2023-05-24T18:48:36.250Z,3.20
2023-05-24T18:50:38.387Z,2.90
2023-05-24T18:52:40.355Z,3.08
2023-05-24T18:54:42.266Z,4.15
2023-05-24T18:56:45.697Z,3.65
2023-05-24T18:58:49.856Z,4.35
2023-05-24T19:00:52.246Z,3.63
2023-05-24T19:02:55.677Z,4.20
2023-05-24T19:04:58.279Z,3.78
2023-05-24T19:07:00.530Z,3.58
2023-05-24T19:09:04.814Z,3.72
2023-05-24T19:11:06.625Z,4.57
2023-05-24T19:13:08.574Z,3.80
2023-05-24T19:15:11.048Z,3.58
2023-05-24T19:17:12.889Z,3.13
2023-05-24T19:19:14.736Z,3.65
2023-05-24T19:21:16.678Z,3.15
2023-05-24T19:23:18.518Z,2.55
2023-05-24T19:25:21.498Z,3.40
2023-05-24T19:27:24.676Z,3.80
2023-05-24T19:29:26.754Z,3.47
2023-05-24T19:31:29.635Z,3.22
2023-05-24T19:33:31.518Z,3.70
2023-05-24T19:35:34.759Z,3.10
2023-05-24T19:37:36.566Z,3.00
2023-05-24T19:39:38.775Z,3.10
2023-05-24T19:41:41.131Z,3.40
2023-05-24T19:43:43.438Z,3.53
2023-05-24T19:45:45.670Z,4.20
2023-05-24T19:47:47.938Z,3.58
2023-05-24T19:49:49.832Z,3.22
2023-05-24T19:51:52.353Z,3.45
2023-05-24T19:53:57.553Z,3.35
2023-05-24T19:55:59.486Z,3.47
2023-05-24T19:58:01.357Z,3.80
2023-05-24T20:00:04.790Z,2.80
2023-05-24T20:02:07.816Z,3.83
2023-05-24T20:04:12.889Z,3.05
2023-05-24T20:06:18.532Z,3.85
2023-05-24T20:08:21.675Z,4.07
2023-05-24T20:10:23.934Z,3.72
2023-05-24T20:12:26.073Z,3.92
2023-05-24T20:14:31.614Z,3.83
2023-05-24T20:16:33.846Z,4.88
2023-05-24T20:18:35.818Z,4.65
2023-05-24T20:20:37.802Z,4.80
2023-05-24T20:22:39.775Z,4.55
2023-05-24T20:24:41.758Z,6.13
2023-05-24T20:26:43.709Z,5.90
2023-05-24T20:28:46.577Z,5.78
2023-05-24T20:30:48.612Z,5.22
2023-05-24T20:32:50.839Z,5.32
2023-05-24T20:34:52.709Z,4.95
2023-05-24T20:36:54.626Z,4.93
2023-05-24T20:38:56.634Z,5.00
2023-05-24T20:40:58.573Z,5.15
2023-05-24T20:43:00.508Z,4.40
2023-05-24T20:45:03.785Z,5.43
2023-05-24T20:47:06.132Z,5.70
2023-05-24T20:49:08.044Z,5.07
2023-05-24T20:51:10.213Z,5.15
2023-05-24T20:53:12.152Z,5.63
2023-05-24T20:55:16.349Z,4.80
2023-05-24T20:57:20.781Z,5.13
2023-05-24T20:59:22.715Z,5.63
2023-05-24T21:01:24.712Z,6.15
2023-05-24T21:03:27.099Z,4.63
2023-05-24T21:05:29.055Z,5.45
2023-05-24T21:07:31.231Z,5.00
2023-05-24T21:09:33.145Z,5.80
2023-05-24T21:11:35.065Z,5.43
2023-05-24T21:13:39.491Z,5.25
2023-05-24T21:15:44.644Z,5.05
2023-05-24T21:17:47.383Z,4.90
2023-05-24T21:19:49.371Z,4.07
2023-05-24T21:21:51.297Z,4.30
2023-05-24T21:23:53.231Z,4.55
2023-05-24T21:25:55.090Z,4.43
2023-05-24T21:27:57.597Z,4.38
2023-05-24T21:29:59.451Z,4.10
2023-05-24T21:32:01.299Z,4.53
2023-05-24T21:34:03.202Z,4.25
2023-05-24T21:36:05.186Z,4.30
2023-05-24T21:38:07.102Z,4.57
2023-05-24T21:40:10.055Z,4.22
2023-05-24T21:42:11.961Z,5.57
2023-05-24T21:44:13.859Z,5.30
2023-05-24T21:46:16.159Z,5.05
2023-05-24T21:48:18.342Z,4.70
2023-05-24T21:50:20.154Z,4.95
2023-05-24T21:52:23.090Z,5.07
2023-05-24T21:54:24.953Z,5.47
2023-05-24T21:56:27.231Z,4.90
2023-05-24T21:58:29.406Z,4.88
2023-05-24T22:00:31.908Z,4.43
2023-05-24T22:02:34.672Z,4.82
2023-05-24T22:04:36.624Z,4.82
2023-05-24T22:06:41.481Z,4.70
2023-05-24T22:08:43.300Z,4.78
2023-05-24T22:10:45.176Z,5.13
2023-05-24T22:12:48.315Z,4.95
2023-05-24T22:14:50.135Z,4.88
2023-05-24T22:16:52.024Z,4.70
2023-05-24T22:18:55.736Z,4.40
2023-05-24T22:20:58.607Z,4.25
2023-05-24T22:23:00.589Z,4.97
2023-05-24T22:25:02.614Z,5.43
2023-05-24T22:27:05.116Z,5.25
2023-05-24T22:29:06.970Z,4.97
2023-05-24T22:31:08.774Z,4.80
2023-05-24T22:33:10.555Z,4.72
2023-05-24T22:35:12.468Z,4.78
2023-05-24T22:37:16.988Z,4.35
2023-05-24T22:39:19.223Z,4.22
2023-05-24T22:41:22.788Z,4.55
2023-05-24T22:43:24.584Z,4.47
2023-05-24T22:45:26.473Z,4.20
2023-05-24T22:47:28.915Z,3.85
2023-05-24T22:49:34.297Z,4.05
2023-05-24T22:51:37.788Z,3.83
2023-05-24T22:53:39.787Z,4.03
2023-05-24T22:55:41.889Z,4.05
2023-05-24T22:57:44.103Z,3.92
2023-05-24T22:59:45.967Z,3.50
2023-05-24T23:01:47.977Z,3.53
2023-05-24T23:03:49.879Z,4.53
2023-05-24T23:05:53.787Z,4.07
2023-05-24T23:07:55.656Z,4.72
2023-05-24T23:09:59.869Z,3.55
2023-05-24T23:12:07.599Z,3.33
2023-05-24T23:14:11.385Z,3.40
2023-05-24T23:16:18.091Z,3.83
2023-05-24T23:18:22.434Z,4.03
2023-05-24T23:20:24.680Z,3.80
2023-05-24T23:22:26.639Z,3.92
2023-05-24T23:24:28.457Z,3.65
2023-05-24T23:26:30.238Z,3.53
2023-05-24T23:28:32.811Z,3.38
2023-05-24T23:30:34.690Z,3.53
2023-05-24T23:32:36.541Z,3.55
2023-05-24T23:34:38.458Z,3.60
2023-05-24T23:36:40.243Z,3.42
2023-05-24T23:38:42.072Z,4.20
2023-05-24T23:40:43.951Z,3.42
2023-05-24T23:42:45.763Z,4.05
2023-05-24T23:44:50.734Z,3.60
2023-05-24T23:46:53.227Z,3.35
2023-05-24T23:48:55.048Z,3.22
2023-05-24T23:50:56.793Z,3.80
2023-05-24T23:52:58.562Z,3.42
2023-05-24T23:55:00.375Z,3.88
2023-05-24T23:57:07.697Z,4.22
2023-05-24T23:59:09.540Z,4.15
